• Join FlightAware (Why Join?)
  • Login
  • US Flag 
07:19PM EDT


 

Airport Tracker/Info


-or-


 

Live Flight TrackerFlight Track Log ✈ JUS827 ✈ 26-Apr-2013 ✈ KLRD - KLPR

Flight Track Log - Related Links

Times and Time Zones

All times are in EDT time to prevent confusion due to time zone crossing. See the JUS827 flight status page for this flight to view local times or setup timezone preferences in your user account.

Time Position Orientation Groundspeed Altitude Reporting Facility
EDT Latitude Longitude Course Direction KTS MPH feet Rate Location/Type
08:36AM 27.5231 -99.4628 47° Northeast 148 170 1,600  Level Houston Center
08:37AM 27.5108 -99.4139 106° East 234 269 3,500 1,800 Climbing Houston Center
08:38AM 27.5606 -99.3658 41° Northeast 232 267 5,400 1,680 Climbing Houston Center
08:39AM 27.6214 -99.3119 38° Northeast 253 291 7,000 1,800 Climbing Houston Center
08:40AM 27.6817 -99.2417 46° Northeast 288 331 9,200 1,980 Climbing Houston Center
08:42AM 27.9997 -98.9037 47° Northeast  Level FlightAware Approximate
08:42AM 27.7381 -99.1794 44° Northeast 290 334 11,100  Level Houston Center
08:43AM 27.8050 -99.0958 48° Northeast 292 336 12,200 1,080 Climbing Houston Center
08:44AM 27.8664 -99.0150 49° Northeast 316 364 13,400 1,080 Climbing Houston Center
08:45AM 27.9308 -98.9369 47° Northeast 331 381 14,500 1,080 Climbing Houston Center
08:46AM 27.9958 -98.8569 47° Northeast 340 391 15,700 1,080 Climbing Houston Center
08:47AM 28.0611 -98.7767 47° Northeast 344 396 16,800 960 Climbing Houston Center
08:48AM 28.1283 -98.6936 47° Northeast 354 407 17,700 960 Climbing Houston Center
08:49AM 28.1953 -98.6106 48° Northeast 356 410 18,800 1,020 Climbing Houston Center
08:50AM 28.2639 -98.5264 47° Northeast 362 417 19,800 900 Climbing Houston Center
08:51AM 28.3333 -98.4408 47° Northeast 368 423 20,700 1,080 Climbing Houston Center
08:52AM 28.4164 -98.3364 48° Northeast 371 427 22,100 1,080 Climbing Houston Center
08:53AM 28.4858 -98.2478 48° Northeast 380 437 23,000 840 Climbing Houston Center
08:54AM 28.5467 -98.1442 56° Northeast 392 451 23,900 780 Climbing Houston Center
08:55AM 28.6269 -98.0594 43° Northeast 395 455 24,700 600 Climbing Houston Center
08:56AM 28.7092 -97.9722 43° Northeast 402 463 25,200 900 Climbing Houston Center
08:57AM 28.7836 -97.8761 49° Northeast 405 466 26,600 1,200 Climbing Houston Center
08:58AM 28.8739 -97.7708 46° Northeast 389 448 27,700 900 Climbing Houston Center
08:59AM 28.9500 -97.6800 46° Northeast 393 452 28,500 660 Climbing Houston Center
09:00AM 29.0283 -97.5878 46° Northeast 402 463 29,100 540 Climbing Houston Center
09:01AM 29.1067 -97.4936 46° Northeast 410 472 29,700 480 Climbing Houston Center
09:02AM 29.1900 -97.4000 44° Northeast 417 480 30,200 480 Climbing Houston Center
09:03AM 29.2664 -97.2983 49° Northeast 419 482 30,700 660 Climbing Houston Center
09:04AM 29.3472 -97.1986 47° Northeast 422 486 31,600 600 Climbing Houston Center
09:05AM 29.4219 -97.0931 51° Northeast 422 486 32,000 660 Climbing Houston Center
09:06AM 29.5094 -96.9611 53° Northeast 426 490 33,000 900 Climbing Houston Center
09:07AM 29.5817 -96.8592 51° Northeast 407 468 33,900 840 Climbing Houston Center
09:08AM 29.6592 -96.7689 45° Northeast 397 457 34,800 480 Climbing Houston Center
09:09AM 29.7419 -96.6900 40° Northeast 387 445 35,000 60 Climbing Houston Center
09:10AM 29.8267 -96.6064 41° Northeast 398 458 35,000  Level Houston Center
09:11AM 29.9122 -96.5122 44° Northeast 418 481 35,000  Level Houston Center
09:12AM 30.0014 -96.4208 42° Northeast 427 491 35,000  Level Houston Center
09:13AM 30.0814 -96.3131 49° Northeast 438 504 35,000  Level Houston Center
09:14AM 30.1794 -96.1892 48° Northeast 440 506 35,000  Level Houston Center
09:15AM 30.2608 -96.0806 49° Northeast 443 510 35,000  Level Houston Center
09:17AM 30.3336 -95.9875 48° Northeast 441 507 35,000  Level Houston Center
09:18AM 30.4411 -95.8719 43° Northeast 438 504 35,000  Level Houston Center
09:19AM 30.5367 -95.7864 38° Northeast 433 498 35,000  Level Houston Center
09:20AM 30.6267 -95.6886 43° Northeast 443 510 35,000  Level Houston Center
09:21AM 30.7200 -95.5903 42° Northeast 439 505 35,000  Level Houston Center
09:22AM 30.8142 -95.4994 40° Northeast 439 505 35,000  Level Houston Center
09:23AM 30.9039 -95.4019 43° Northeast 445 512 35,000  Level Houston Center
09:24AM 30.9997 -95.3122 39° Northeast 441 507 35,000  Level Houston Center
09:25AM 31.0925 -95.2161 42° Northeast 445 512 35,000  Level Houston Center
09:26AM 31.2058 -95.1042 40° Northeast 446 513 35,000  Level Houston Center
09:27AM 31.3031 -95.0125 39° Northeast 445 512 35,000  Level Houston Center
09:28AM 31.4014 -94.9208 38° Northeast 443 510 35,000  Level Houston Center
09:29AM 31.4900 -94.8553 32° Northeast 446 513 35,000  Level Fort Worth Center
09:30AM 31.5972 -94.7817 30° Northeast 439 505 35,000  Level Fort Worth Center
09:31AM 31.6956 -94.7008 35° Northeast 434 499 35,000  Level Fort Worth Center
09:32AM 31.8006 -94.6269 31° Northeast 434 499 35,000  Level Fort Worth Center
09:33AM 31.9075 -94.5575 29° Northeast 429 494 35,000  Level Fort Worth Center
09:34AM 32.0122 -94.4808 32° Northeast 429 494 35,000  Level Fort Worth Center
09:35AM 32.1147 -94.4039 32° Northeast 429 494 35,000  Level Fort Worth Center
09:36AM 32.2186 -94.2972 41° Northeast 436 502 35,000  Level Fort Worth Center
09:37AM 32.3167 -94.2128 36° Northeast 441 507 35,000  Level Fort Worth Center
09:38AM 32.4167 -94.1183 39° Northeast 441 507 35,000  Level Fort Worth Center
09:39AM 32.5122 -94.0211 41° Northeast 446 513 35,000  Level Fort Worth Center
09:40AM 32.6119 -93.9336 36° Northeast 446 513 35,000  Level Fort Worth Center
09:41AM 32.7183 -93.8553 32° Northeast 446 513 35,000  Level Fort Worth Center
09:42AM 32.8158 -93.7625 39° Northeast 446 513 35,000  Level Fort Worth Center
09:43AM 32.9200 -93.6817 33° Northeast 446 513 35,000  Level Fort Worth Center
09:44AM 33.0239 -93.5931 36° Northeast 446 513 35,000  Level Fort Worth Center
09:45AM 33.1256 -93.5092 35° Northeast 446 513 35,000  Level Fort Worth Center
09:47AM 33.3253 -93.3456 34° Northeast 439 505 35,000  Level Memphis Center
09:48AM 33.4253 -93.2569 36° Northeast 439 505 35,000  Level Memphis Center
09:49AM 33.5294 -93.1756 33° Northeast 439 505 35,000  Level Memphis Center
09:50AM 33.6275 -93.0864 37° Northeast 439 505 35,000  Level Memphis Center
09:51AM 33.7294 -93.0047 34° Northeast 439 505 35,000  Level Memphis Center
09:52AM 33.8294 -92.9178 36° Northeast 439 505 35,000  Level Memphis Center
09:53AM 33.9292 -92.8356 34° Northeast 439 505 35,000  Level Memphis Center
09:54AM 34.0289 -92.7508 35° Northeast 434 499 35,000  Level Memphis Center
09:55AM 34.1328 -92.6533 38° Northeast 434 499 35,000  Level Memphis Center
09:56AM 34.2283 -92.5628 38° Northeast 429 494 35,000  Level Memphis Center
09:57AM 34.3281 -92.4775 35° Northeast 434 499 35,000  Level Memphis Center
09:58AM 34.4214 -92.3864 39° Northeast 434 499 35,000  Level Memphis Center
09:59AM 34.5228 -92.3083 32° Northeast 434 499 35,000  Level Memphis Center
10:00AM 34.6178 -92.2272 35° Northeast 429 494 35,000  Level Memphis Center
10:01AM 34.7153 -92.1308 39° Northeast 429 494 35,000  Level Memphis Center
10:02AM 34.8022 -92.0264 45° Northeast 429 494 35,000  Level Memphis Center
10:03AM 34.8892 -91.9117 47° Northeast 441 507 35,000  Level Memphis Center
10:04AM 34.9739 -91.8017 47° Northeast 447 514 35,000  Level Memphis Center
10:05AM 35.0567 -91.6864 49° Northeast 447 514 35,000  Level Memphis Center
10:06AM 35.1433 -91.5836 44° Northeast 442 509 35,000  Level Memphis Center
10:07AM 35.2339 -91.4756 44° Northeast 437 503 35,000  Level Memphis Center
10:08AM 35.3203 -91.3647 46° Northeast 437 503 35,000  Level Memphis Center
10:09AM 35.4067 -91.2589 45° Northeast 437 503 35,000  Level Memphis Center
10:10AM 35.4950 -91.1450 46° Northeast 442 509 35,000  Level Memphis Center
10:11AM 35.5833 -91.0336 46° Northeast 449 517 35,000  Level Memphis Center
10:12AM 35.6611 -90.9369 45° Northeast 449 517 35,000  Level Memphis Center
10:13AM 35.7408 -90.8225 49° Northeast 449 517 35,000  Level Memphis Center
10:14AM 35.8267 -90.7128 46° Northeast 437 503 35,000  Level Memphis Center
10:15AM 35.9122 -90.6031 46° Northeast 437 503 35,000  Level Memphis Center
10:16AM 35.9958 -90.4931 47° Northeast 432 497 35,000  Level Memphis Center
10:17AM 36.0836 -90.3853 45° Northeast 432 497 35,000  Level Memphis Center
10:18AM 36.1711 -90.2772 45° Northeast 432 497 35,000  Level Memphis Center
10:19AM 36.2522 -90.1639 48° Northeast 432 497 35,000  Level Memphis Center
10:20AM 36.3397 -90.0581 44° Northeast 432 497 35,000  Level Memphis Center
10:21AM 36.4186 -89.9417 50° Northeast 432 497 35,000  Level Memphis Center
10:22AM 36.4867 -89.8150 56° Northeast 437 503 35,000  Level Memphis Center
10:23AM 36.5592 -89.6828 56° Northeast 447 514 35,000  Level Memphis Center
10:24AM 36.6375 -89.5606 51° Northeast 452 520 35,000  Level Memphis Center
10:25AM 36.7181 -89.4381 51° Northeast 457 526 35,000  Level Memphis Center
10:26AM 36.8086 -89.3100 49° Northeast 457 526 35,000  Level Memphis Center
10:27AM 36.8931 -89.1897 49° Northeast 452 520 35,000  Level Memphis Center
10:28AM 36.9814 -89.0767 46° Northeast 452 520 35,000  Level Memphis Center
10:29AM 37.0719 -88.9686 44° Northeast 446 513 35,000  Level Memphis Center
10:31AM 37.2169 -88.7678 48° Northeast 465 535 35,000  Level Indianapolis Center
10:31AM 37.2483 -88.7308 43° Northeast 457 526 35,000  Level Memphis Center
10:32AM 37.3361 -88.6092 48° Northeast 464 534 35,000  Level Memphis Center
10:33AM 37.4239 -88.4869 48° Northeast 464 534 35,000  Level Memphis Center
10:35AM 37.5647 -88.2669 51° Northeast 476 548 35,000  Level Indianapolis Center
10:36AM 37.6686 -88.1253 47° Northeast 476 548 35,000  Level Indianapolis Center
10:37AM 37.7639 -87.9942 47° Northeast 480 552 35,000  Level Indianapolis Center
10:38AM 37.8492 -87.8647 50° Northeast 479 551 35,000  Level Indianapolis Center
10:39AM 37.9367 -87.7364 49° Northeast 480 552 35,100  Climbing Indianapolis Center
10:40AM 37.9947 -87.5769 65° Northeast 497 572 35,000 -60 Descending Indianapolis Center
10:41AM 38.0331 -87.4058 74° East 507 583 35,000  Level Indianapolis Center
10:42AM 38.0864 -87.2453 67° East 498 573 35,000  Level Indianapolis Center
10:43AM 38.1367 -87.0439 72° East 508 585 35,000  Level Indianapolis Center
10:44AM 38.1703 -86.8739 76° East 508 585 35,000  Level Indianapolis Center
10:45AM 38.2303 -86.7189 64° Northeast 496 571 35,000  Level Indianapolis Center
10:46AM 38.3006 -86.5711 59° Northeast 493 567 35,000  Level Indianapolis Center
10:47AM 38.3797 -86.4336 54° Northeast 485 558 35,000  Level Indianapolis Center
10:48AM 38.4558 -86.2936 55° Northeast 482 555 35,000  Level Indianapolis Center
10:49AM 38.5547 -86.1331 52° Northeast 480 552 35,000  Level Indianapolis Center
10:50AM 38.6372 -86.0008 51° Northeast 474 545 35,000  Level Indianapolis Center
10:51AM 38.7142 -85.8706 53° Northeast 476 548 35,000  Level Indianapolis Center
10:52AM 38.7972 -85.7397 51° Northeast 471 542 35,000  Level Indianapolis Center
10:53AM 38.8808 -85.6089 51° Northeast 473 544 35,000  Level Indianapolis Center
10:54AM 38.9764 -85.4547 51° Northeast 472 543 35,000  Level Indianapolis Center
10:55AM 39.0583 -85.3233 51° Northeast 471 542 35,000  Level Indianapolis Center
10:56AM 39.1425 -85.1942 50° Northeast 470 541 35,000  Level Indianapolis Center
10:57AM 39.2258 -85.0642 50° Northeast 469 540 35,000  Level Indianapolis Center
10:58AM 39.3128 -84.9389 48° Northeast 468 539 35,000  Level Indianapolis Center
10:59AM 39.4067 -84.8050 48° Northeast 461 531 35,000  Level Indianapolis Center
11:00AM 39.4894 -84.6789 50° Northeast 459 528 35,000 -1,200 Level Indianapolis Center
11:01AM 39.5753 -84.5467 50° Northeast 473 544 32,600 -2,040 Descending Indianapolis Center
11:03AM 39.6689 -84.4031 50° Northeast 512 589 30,900 -1,860 Descending Indianapolis Center
11:04AM 39.7403 -84.2361 61° Northeast 535 616 28,800 -1,260 Descending Indianapolis Center
11:05AM 39.7969 -84.0672 66° East 502 578 28,400 -900 Descending Indianapolis Center
11:06AM 39.8744 -83.9264 54° Northeast 477 549 27,000 -1,260 Descending Indianapolis Center
11:07AM 39.9561 -83.7953 51° Northeast 460 529 25,900 -1,020 Descending Indianapolis Center
11:08AM 40.0353 -83.6664 51° Northeast 449 517 25,000 -1,020 Descending Indianapolis Center
11:09AM 40.1264 -83.5217 51° Northeast 440 506 23,900 -1,320 Descending Indianapolis Center
11:10AM 40.2072 -83.4000 49° Northeast 437 503 22,400 -1,080 Descending Indianapolis Center
11:11AM 40.2900 -83.2817 47° Northeast 436 502 21,700 -1,020 Descending Indianapolis Center
11:12AM 40.3711 -83.1683 47° Northeast 425 489 20,400 -840 Descending Indianapolis Center
11:13AM 40.4525 -83.0575 46° Northeast 418 481 20,000 -600 Descending Indianapolis Center
11:14AM 40.5306 -82.9561 45° Northeast 402 463 19,200 -780 Descending Indianapolis Center
11:15AM 40.6131 -82.8586 42° Northeast 396 456 18,500 -1,080 Descending Indianapolis Center
11:16AM 40.7006 -82.7756 36° Northeast 385 443 17,100 -1,680 Descending Indianapolis Center
11:17AM 40.7878 -82.6839 38° Northeast 377 434 15,200 -2,100 Descending Cleveland Center
11:18AM 40.8583 -82.5928 44° Northeast 366 421 13,100 -2,100 Descending Cleveland Center
11:18AM 40.8839 -82.5633 41° Northeast 325 374 12,300 -1,800 Descending Cleveland Center
11:19AM 40.9219 -82.5206 40° Northeast 333 383 11,300 -2,160 Descending Cleveland Center
11:20AM 40.9644 -82.4806 35° Northeast 267 307 9,500 -2,100 Descending Cleveland Center
11:20AM 40.9794 -82.4561 51° Northeast 287 330 9,200 -480 Descending Cleveland Center
11:21AM 41.0156 -82.4078 45° Northeast 217 250 9,000 -120 Descending Cleveland Center
11:22AM 41.0497 -82.3617 45° Northeast 199 229 9,000  Level Cleveland Center
11:22AM 41.0625 -82.3428 48° Northeast 209 241 9,000 -1,320 Level Cleveland Center
11:23AM 41.1050 -82.2833 46° Northeast 209 241 7,400 -2,040 Descending Cleveland Center
11:24AM 41.1453 -82.2542 29° Northeast 264 304 5,500 -2,700 Descending Cleveland Center
11:24AM 41.1661 -82.2381 30° Northeast 237 273 4,700 -2,280 Descending Cleveland Center
11:25AM 41.2228 -82.2203 13° North 258 297 3,000 -900 Descending Cleveland Center
11:26AM 41.2833 -82.2133 North 230 265 3,000 -60 Level Cleveland Center
11:27AM 41.3292 -82.2200 354° North 176 203 2,900 -600 Descending Cleveland Center
11:28AM 41.3567 -82.1931 36° Northeast 127 146 1,900 -1,020 Descending Cleveland Center
11:30AM 41.3443 -82.1776 294° West  Level Estimated
11:37AM 41.3443 -82.1776 294° West  Level Estimated
11:38AM 41.3443 -82.1776 294° West  Level Estimated